Terminal Aerodrome Forecast
Issued by NWS

Home | Current Version | Previous Version | Text Only | Print | Product List | Glossary On
Versions: 1 2 3 4 5 6 7 8 9 10 11 12 13 14 15 16
000
FTUS45 KVEF 011100
TAFBIH
TAF
KBIH 011120Z 0112/0212 34006KT P6SM FEW120
     FM011900 17008KT P6SM VCSH SCT120
     FM020500 34006KT P6SM FEW120=

USA.gov is the U.S. government's official web portal to all federal, state and local government web resources and services.